Time;durP1;ratioP1;P1;durP2;ratioP2;P2;SDS_P1;SDS_P2;PMS_P1;PMS_P2;Temp;Humidity;BMP_temperature;BMP_pressure;BME280_temperature;BME280_humidity;BME280_pressure;Samples;Min_cycle;Max_cycle;Signal;HPM_P1;HPM_P2
2021/11/04 00:00:06;;;;;;;16.35;11.55;;;8.20;99.90;;;;;;5089345;28;20094;-50
2021/11/04 00:02:31;;;;;;;19.10;12.68;;;8.20;99.90;;;;;;5073272;28;20108;-50
2021/11/04 00:04:57;;;;;;;16.95;11.95;;;8.20;99.90;;;;;;5089108;28;20254;-49
2021/11/04 00:07:24;;;;;;;17.73;12.25;;;8.20;99.90;;;;;;5088485;28;20389;-48
2021/11/04 00:09:50;;;;;;;20.17;13.40;;;8.20;99.90;;;;;;5089115;28;20016;-49
2021/11/04 00:12:15;;;;;;;18.00;12.77;;;8.20;99.90;;;;;;5089162;28;20085;-49
2021/11/04 00:14:41;;;;;;;17.60;12.65;;;8.20;99.90;;;;;;5089118;28;20095;-50
2021/11/04 00:17:07;;;;;;;22.20;14.40;;;8.20;99.90;;;;;;5088277;28;20047;-49
2021/11/04 00:19:32;;;;;;;19.52;12.88;;;8.20;99.90;;;;;;5089147;28;20099;-48
2021/11/04 00:21:58;;;;;;;19.35;12.95;;;8.20;99.90;;;;;;5089024;28;20486;-50
2021/11/04 00:24:24;;;;;;;20.23;13.27;;;8.20;99.90;;;;;;5089126;28;20020;-48
2021/11/04 00:26:50;;;;;;;20.13;13.65;;;8.20;99.90;;;;;;5087722;28;20027;-49
2021/11/04 00:29:15;;;;;;;20.52;13.63;;;8.20;99.90;;;;;;5088586;28;20478;-50
2021/11/04 00:31:41;;;;;;;20.33;14.38;;;8.20;99.90;;;;;;5067245;28;20017;-50
2021/11/04 00:34:06;;;;;;;21.80;14.45;;;8.20;99.90;;;;;;5080445;28;20488;-50
2021/11/04 00:36:32;;;;;;;20.23;13.65;;;8.20;99.90;;;;;;5088772;28;20488;-51
2021/11/04 00:38:59;;;;;;;22.08;14.88;;;8.20;99.90;;;;;;5088384;28;20187;-49
2021/11/04 00:41:24;;;;;;;22.52;15.82;;;8.20;99.90;;;;;;5087806;28;20089;-50
2021/11/04 00:43:50;;;;;;;23.65;15.43;;;8.20;99.90;;;;;;5088965;28;20020;-49
2021/11/04 00:46:16;;;;;;;21.35;15.10;;;8.20;99.90;;;;;;5087160;28;20478;-51
2021/11/04 00:48:42;;;;;;;20.73;14.27;;;8.20;99.90;;;;;;5086808;28;20119;-48
2021/11/04 00:51:09;;;;;;;23.60;16.25;;;8.20;99.90;;;;;;5087142;28;20103;-50
2021/11/04 00:53:35;;;;;;;24.13;16.52;;;8.20;99.90;;;;;;5080111;28;20012;-50
2021/11/04 00:56:02;;;;;;;24.98;16.70;;;8.20;99.90;;;;;;5088433;28;20401;-50
2021/11/04 00:58:27;;;;;;;22.45;16.10;;;8.20;99.90;;;;;;5079529;28;20024;-49
2021/11/04 01:00:53;;;;;;;26.83;17.75;;;8.20;99.90;;;;;;5078539;28;20031;-48
2021/11/04 01:03:19;;;;;;;24.10;16.27;;;8.20;99.90;;;;;;5094193;28;20043;-49
2021/11/04 01:05:45;;;;;;;27.67;17.80;;;8.20;99.90;;;;;;5085424;28;20473;-50
2021/11/04 01:08:10;;;;;;;27.60;17.75;;;8.20;99.90;;;;;;5087993;28;20028;-47
2021/11/04 01:10:36;;;;;;;28.15;19.40;;;8.20;99.90;;;;;;5095295;28;20493;-50
2021/11/04 01:13:01;;;;;;;28.73;18.30;;;8.10;99.90;;;;;;5095371;28;20081;-47
2021/11/04 01:15:27;;;;;;;26.48;17.35;;;8.10;99.90;;;;;;5095019;28;20031;-47
2021/11/04 01:17:53;;;;;;;29.27;17.88;;;8.20;99.90;;;;;;5094795;28;20028;-47
2021/11/04 01:20:20;;;;;;;32.40;19.92;;;8.10;99.90;;;;;;5095465;28;20066;-47
2021/11/04 01:22:47;;;;;;;30.23;20.70;;;8.10;99.90;;;;;;5095538;28;20028;-49
2021/11/04 01:25:13;;;;;;;31.15;19.55;;;8.10;99.90;;;;;;5095472;28;20016;-48
2021/11/04 01:27:39;;;;;;;27.00;18.33;;;8.10;99.90;;;;;;5094854;28;20032;-49
2021/11/04 01:30:06;;;;;;;29.40;20.45;;;8.10;99.90;;;;;;5095401;28;20024;-50
2021/11/04 01:32:32;;;;;;;29.33;19.98;;;8.10;99.90;;;;;;5095422;28;20031;-49
2021/11/04 01:34:58;;;;;;;32.10;20.48;;;8.10;99.90;;;;;;5090283;28;20473;-50
2021/11/04 01:37:23;;;;;;;27.08;19.00;;;8.10;99.90;;;;;;5084307;28;20020;-49
2021/11/04 01:39:49;;;;;;;32.88;21.45;;;8.10;99.90;;;;;;5093538;28;20422;-48
2021/11/04 01:42:15;;;;;;;36.72;24.35;;;8.10;99.90;;;;;;5093477;28;20503;-48
2021/11/04 01:44:40;;;;;;;34.00;22.50;;;8.10;99.90;;;;;;5095001;28;20024;-48
2021/11/04 01:47:08;;;;;;;31.20;21.05;;;8.10;99.90;;;;;;5092868;28;20278;-50
2021/11/04 01:49:36;;;;;;;35.50;20.52;;;8.10;99.90;;;;;;5093274;28;20488;-49
2021/11/04 01:52:02;;;;;;;31.15;20.17;;;8.10;99.90;;;;;;5094453;28;20067;-49
2021/11/04 01:54:29;;;;;;;35.85;21.98;;;8.10;99.90;;;;;;5094773;28;20051;-49
2021/11/04 01:56:54;;;;;;;34.28;22.15;;;8.10;99.90;;;;;;5094597;28;20028;-49
2021/11/04 01:59:20;;;;;;;40.40;24.17;;;8.10;99.90;;;;;;5093816;28;20024;-48
2021/11/04 02:01:49;;;;;;;34.25;23.08;;;8.10;99.90;;;;;;5089611;28;20055;-48
2021/11/04 02:04:35;;;;;;;33.25;21.70;;;8.10;99.90;;;;;;5089024;28;20478;-50
2021/11/04 02:07:15;;;;;;;35.53;23.23;;;8.10;99.90;;;;;;5094230;28;20028;-49
2021/11/04 02:09:57;;;;;;;36.60;22.77;;;8.10;99.90;;;;;;5094723;28;20039;-50
2021/11/04 02:12:35;;;;;;;37.08;23.38;;;8.10;99.90;;;;;;5094232;28;20028;-48
2021/11/04 02:15:02;;;;;;;39.42;24.42;;;8.10;99.90;;;;;;5088832;28;20604;-50
2021/11/04 02:17:30;;;;;;;38.05;23.60;;;8.10;99.90;;;;;;5090254;28;20028;-50
2021/11/04 02:19:58;;;;;;;37.97;24.80;;;8.10;99.90;;;;;;5091120;28;20449;-47
2021/11/04 02:22:27;;;;;;;45.90;28.40;;;8.00;99.90;;;;;;5089807;28;20016;-47
2021/11/04 02:25:13;;;;;;;40.72;24.05;;;8.00;99.90;;;;;;5089853;28;20035;-46
2021/11/04 02:27:46;;;;;;;44.08;26.98;;;8.10;99.90;;;;;;5090758;28;20107;-50
2021/11/04 02:30:13;;;;;;;41.75;25.73;;;8.00;99.90;;;;;;5091404;28;20026;-48
2021/11/04 02:32:39;;;;;;;39.67;25.25;;;8.00;99.90;;;;;;5080827;28;20094;-47
2021/11/04 02:35:05;;;;;;;39.53;25.02;;;8.00;99.90;;;;;;5091514;28;20053;-49
2021/11/04 02:37:32;;;;;;;40.17;26.02;;;8.00;99.90;;;;;;5090622;28;20036;-49
2021/11/04 02:39:58;;;;;;;39.42;24.63;;;8.00;99.90;;;;;;5090842;28;20070;-47
2021/11/04 02:42:25;;;;;;;39.47;25.17;;;8.00;99.90;;;;;;5090822;28;20539;-47
2021/11/04 02:44:50;;;;;;;39.15;25.88;;;8.00;99.90;;;;;;5090957;28;20055;-46
2021/11/04 02:47:16;;;;;;;41.60;25.63;;;8.00;99.90;;;;;;5089909;28;20067;-46
2021/11/04 02:49:45;;;;;;;38.03;24.23;;;8.00;99.90;;;;;;5090802;28;20024;-47
2021/11/04 02:52:11;;;;;;;45.08;28.80;;;8.00;99.90;;;;;;5090654;28;20052;-46
2021/11/04 02:54:37;;;;;;;42.35;26.10;;;8.00;99.90;;;;;;5090774;28;20024;-47
2021/11/04 02:57:03;;;;;;;43.80;27.83;;;8.00;99.90;;;;;;5090025;28;20111;-48
2021/11/04 02:59:28;;;;;;;44.53;27.00;;;8.00;99.90;;;;;;5090635;28;20511;-46
2021/11/04 03:01:58;;;;;;;41.42;26.13;;;7.90;99.90;;;;;;5084797;28;20020;-47
2021/11/04 03:04:24;;;;;;;44.42;27.75;;;7.90;99.90;;;;;;5084383;28;20716;-47
2021/11/04 03:06:50;;;;;;;41.13;25.70;;;7.90;99.90;;;;;;5090285;28;20115;-47
2021/11/04 03:09:18;;;;;;;43.75;25.88;;;7.90;99.90;;;;;;5089763;28;20028;-46
2021/11/04 03:11:44;;;;;;;45.88;26.27;;;7.90;99.90;;;;;;5090567;28;20389;-46
2021/11/04 03:14:10;;;;;;;43.72;26.45;;;7.90;99.90;;;;;;5082200;28;20122;-47
2021/11/04 03:16:38;;;;;;;43.40;26.35;;;7.90;99.90;;;;;;5075235;28;20363;-48
2021/11/04 03:19:10;;;;;;;43.28;26.38;;;7.90;99.90;;;;;;5089453;28;20412;-47
2021/11/04 03:21:38;;;;;;;47.13;26.50;;;7.90;99.90;;;;;;5088892;28;20035;-50
2021/11/04 03:24:05;;;;;;;41.20;26.38;;;7.90;99.90;;;;;;5088788;28;20024;-50
2021/11/04 03:26:35;;;;;;;46.03;26.77;;;7.90;99.90;;;;;;5089692;28;20108;-50
2021/11/04 03:29:02;;;;;;;43.17;25.70;;;7.90;99.90;;;;;;5089431;28;20024;-48
2021/11/04 03:31:28;;;;;;;47.88;26.67;;;7.80;99.90;;;;;;5090197;28;20024;-47
2021/11/04 03:33:54;;;;;;;41.70;26.27;;;7.80;99.90;;;;;;5089915;28;20413;-47
2021/11/04 03:36:21;;;;;;;45.20;25.92;;;7.80;99.90;;;;;;5072531;28;20655;-48
2021/11/04 03:38:48;;;;;;;44.60;25.58;;;7.80;99.90;;;;;;5087904;28;20111;-49
2021/11/04 03:41:17;;;;;;;42.50;23.70;;;7.80;99.90;;;;;;5089627;28;20491;-49
2021/11/04 03:43:43;;;;;;;39.53;24.65;;;7.80;99.90;;;;;;5090158;28;20094;-46
2021/11/04 03:46:10;;;;;;;44.25;25.95;;;7.80;99.90;;;;;;5089339;28;20190;-47
2021/11/04 03:48:37;;;;;;;47.75;25.83;;;7.70;99.90;;;;;;5088780;28;20032;-47
2021/11/04 03:51:03;;;;;;;43.72;25.83;;;7.70;99.90;;;;;;5089447;28;20102;-49
2021/11/04 03:53:29;;;;;;;43.83;25.02;;;7.70;99.90;;;;;;5088153;28;20564;-50
2021/11/04 03:55:55;;;;;;;45.65;24.35;;;7.70;99.90;;;;;;5089368;28;20024;-49
2021/11/04 03:58:22;;;;;;;45.05;24.85;;;7.70;99.90;;;;;;5088805;28;20016;-47
2021/11/04 04:00:47;;;;;;;48.25;24.90;;;7.70;99.90;;;;;;5084983;28;20115;-47
2021/11/04 04:03:13;;;;;;;44.60;24.65;;;7.70;99.90;;;;;;5071228;28;20245;-48
2021/11/04 04:05:39;;;;;;;43.63;25.92;;;7.70;99.90;;;;;;5086950;28;20034;-50
2021/11/04 04:08:04;;;;;;;43.33;24.73;;;7.70;99.90;;;;;;5087513;28;20032;-48
2021/11/04 04:10:32;;;;;;;47.63;26.38;;;7.80;99.90;;;;;;5089463;28;20097;-49
2021/11/04 04:12:58;;;;;;;46.38;25.23;;;7.80;99.90;;;;;;5089361;28;20081;-50
2021/11/04 04:15:24;;;;;;;42.33;23.42;;;7.80;99.90;;;;;;5089263;28;20102;-47
2021/11/04 04:17:50;;;;;;;43.63;23.17;;;7.70;99.90;;;;;;5088263;28;20436;-49
2021/11/04 04:20:15;;;;;;;41.45;23.25;;;7.70;99.90;;;;;;5087767;28;20035;-47
2021/11/04 04:22:41;;;;;;;42.85;23.85;;;7.70;99.90;;;;;;5089172;28;20018;-49
2021/11/04 04:25:07;;;;;;;43.03;23.48;;;7.70;99.90;;;;;;5089175;28;20077;-47
2021/11/04 04:27:33;;;;;;;40.88;22.92;;;7.70;99.90;;;;;;5088634;28;20493;-48
2021/11/04 04:29:59;;;;;;;41.13;23.00;;;7.70;99.90;;;;;;5089092;28;20555;-47
2021/11/04 04:32:24;;;;;;;43.83;23.73;;;7.70;99.90;;;;;;5073331;28;20020;-47
2021/11/04 04:34:49;;;;;;;49.00;24.30;;;7.60;99.90;;;;;;5080785;28;20032;-47
2021/11/04 04:37:15;;;;;;;43.25;22.58;;;7.60;99.90;;;;;;5087577;28;20032;-47
2021/11/04 04:39:42;;;;;;;40.10;22.48;;;7.70;99.90;;;;;;5088962;28;20370;-47
2021/11/04 04:42:08;;;;;;;44.85;22.88;;;7.70;99.90;;;;;;5089022;28;20501;-46
2021/11/04 04:44:34;;;;;;;41.58;23.15;;;7.70;99.90;;;;;;5088836;28;20024;-46
2021/11/04 04:47:00;;;;;;;41.50;23.63;;;7.70;99.90;;;;;;5087902;28;20042;-47
2021/11/04 04:49:26;;;;;;;43.30;23.88;;;7.70;99.90;;;;;;5087320;28;20032;-47
2021/11/04 04:51:51;;;;;;;42.30;24.65;;;7.70;99.90;;;;;;5089003;28;20032;-49
2021/11/04 04:54:17;;;;;;;45.72;24.42;;;7.70;99.90;;;;;;5088066;28;20028;-49
2021/11/04 04:56:43;;;;;;;45.08;24.27;;;7.70;99.90;;;;;;5087669;28;20024;-47
2021/11/04 04:59:08;;;;;;;45.40;24.80;;;7.70;99.90;;;;;;5087869;28;20032;-48
2021/11/04 05:01:34;;;;;;;49.97;25.83;;;7.70;99.90;;;;;;5072277;28;20024;-50
2021/11/04 05:03:59;;;;;;;42.03;25.05;;;7.70;99.90;;;;;;5080325;28;20027;-46
2021/11/04 05:06:25;;;;;;;43.55;23.27;;;7.70;99.90;;;;;;5088517;28;20107;-47
2021/11/04 05:08:51;;;;;;;43.08;25.00;;;7.70;99.90;;;;;;5086672;28;20016;-47
2021/11/04 05:11:16;;;;;;;45.28;25.88;;;7.70;99.90;;;;;;5088461;28;20024;-46
2021/11/04 05:13:42;;;;;;;43.90;25.05;;;7.70;99.90;;;;;;5088509;28;20130;-48
2021/11/04 05:16:07;;;;;;;51.15;25.88;;;7.60;99.90;;;;;;5087095;28;20437;-50
2021/11/04 05:18:33;;;;;;;50.30;28.10;;;7.70;99.90;;;;;;5070581;28;20029;-47
2021/11/04 05:20:59;;;;;;;50.28;28.40;;;7.70;99.90;;;;;;5054829;28;20033;-46
2021/11/04 05:23:24;;;;;;;51.55;28.33;;;7.60;99.90;;;;;;5054627;28;20064;-47
2021/11/04 05:25:50;;;;;;;47.78;27.20;;;7.60;99.90;;;;;;5049505;28;20116;-50
2021/11/04 05:28:16;;;;;;;50.95;27.75;;;7.60;99.90;;;;;;5055737;28;20209;-49
2021/11/04 05:30:42;;;;;;;45.88;26.70;;;7.60;99.90;;;;;;5066274;28;20027;-50
2021/11/04 05:33:08;;;;;;;42.20;24.77;;;7.60;99.90;;;;;;5055400;28;20085;-48
2021/11/04 05:35:34;;;;;;;50.13;27.73;;;7.70;99.90;;;;;;5071067;28;20060;-50
2021/11/04 05:38:00;;;;;;;42.53;24.75;;;7.70;99.90;;;;;;5067397;28;20470;-50
2021/11/04 05:40:25;;;;;;;44.60;26.10;;;7.60;99.90;;;;;;5068051;28;20077;-49
2021/11/04 05:42:51;;;;;;;43.40;25.48;;;7.70;99.90;;;;;;5068254;28;20109;-49
2021/11/04 05:45:17;;;;;;;50.75;25.88;;;7.70;99.90;;;;;;5068154;28;20360;-49
2021/11/04 05:47:42;;;;;;;48.17;26.08;;;7.60;99.90;;;;;;5047795;28;20036;-49
2021/11/04 05:50:08;;;;;;;42.65;24.58;;;7.60;99.90;;;;;;5051942;28;20037;-50
2021/11/04 05:52:34;;;;;;;40.00;23.83;;;7.60;99.90;;;;;;5051678;28;20110;-49
2021/11/04 05:55:00;;;;;;;40.45;24.00;;;7.70;99.90;;;;;;5051592;28;20057;-50
2021/11/04 05:57:25;;;;;;;42.13;24.95;;;7.70;99.90;;;;;;5050887;28;20033;-49
2021/11/04 05:59:51;;;;;;;38.80;22.08;;;7.70;99.90;;;;;;5051505;28;20029;-49
2021/11/04 06:02:16;;;;;;;35.30;22.05;;;7.70;99.90;;;;;;5063308;28;20199;-50
2021/11/04 06:04:45;;;;;;;38.30;21.88;;;7.60;99.90;;;;;;5081869;28;20019;-50
2021/11/04 06:07:11;;;;;;;33.92;19.90;;;7.60;99.90;;;;;;5090975;28;20020;-50
2021/11/04 06:09:37;;;;;;;35.17;20.38;;;7.60;99.90;;;;;;5091526;28;20398;-51
2021/11/04 06:12:02;;;;;;;35.95;21.38;;;7.60;99.90;;;;;;5091468;28;20024;-48
2021/11/04 06:14:28;;;;;;;36.30;22.08;;;7.60;99.90;;;;;;5091657;28;20040;-49
2021/11/04 06:16:53;;;;;;;37.50;21.60;;;7.60;99.90;;;;;;5091055;28;20035;-46
2021/11/04 06:19:20;;;;;;;35.38;20.63;;;7.60;99.90;;;;;;5090928;28;20459;-49
2021/11/04 06:21:45;;;;;;;38.00;22.60;;;7.60;99.90;;;;;;5091303;28;20111;-49
2021/11/04 06:24:11;;;;;;;36.17;20.88;;;7.60;99.90;;;;;;5091368;28;20024;-50
2021/11/04 06:26:37;;;;;;;40.42;22.35;;;7.60;99.90;;;;;;5091092;28;20366;-47
2021/11/04 06:29:03;;;;;;;35.03;21.25;;;7.70;99.90;;;;;;5090565;28;20454;-48
2021/11/04 06:31:28;;;;;;;36.85;21.58;;;7.60;99.90;;;;;;5078824;28;20061;-50
2021/11/04 06:33:54;;;;;;;38.53;22.45;;;7.70;99.90;;;;;;5081825;28;20016;-47
2021/11/04 06:36:19;;;;;;;37.78;22.35;;;7.70;99.90;;;;;;5091138;28;20110;-49
2021/11/04 06:38:45;;;;;;;35.05;21.15;;;7.60;99.90;;;;;;5090607;28;20035;-48
2021/11/04 06:41:10;;;;;;;34.60;21.15;;;7.60;99.90;;;;;;5090781;28;20035;-47
2021/11/04 06:43:36;;;;;;;34.80;21.90;;;7.60;99.90;;;;;;5090867;28;20032;-49
2021/11/04 06:46:02;;;;;;;35.75;21.60;;;7.60;99.90;;;;;;5090683;28;20474;-47
2021/11/04 06:48:42;;;;;;;36.97;21.95;;;7.60;99.90;;;;;;5090213;28;20027;-47
2021/11/04 06:51:09;;;;;;;37.03;20.73;;;7.60;99.90;;;;;;5091073;28;20032;-47
2021/11/04 06:53:41;;;;;;;33.28;20.48;;;7.60;99.90;;;;;;5090888;28;20071;-46
2021/11/04 06:56:07;;;;;;;32.30;19.10;;;7.60;99.90;;;;;;5090640;28;20081;-48
2021/11/04 06:58:34;;;;;;;34.97;19.90;;;7.60;99.90;;;;;;5089923;28;20036;-46
2021/11/04 07:01:03;;;;;;;39.08;21.48;;;7.60;99.90;;;;;;5085326;28;20028;-50
2021/11/04 07:03:30;;;;;;;35.30;21.10;;;7.60;99.90;;;;;;5074402;28;20020;-48
2021/11/04 07:06:06;;;;;;;36.60;20.85;;;7.60;99.90;;;;;;5090297;28;20649;-47
2021/11/04 07:08:40;;;;;;;36.53;21.33;;;7.60;99.90;;;;;;5089755;28;20089;-49
2021/11/04 07:11:05;;;;;;;37.55;20.65;;;7.60;99.90;;;;;;5090559;28;20385;-49
2021/11/04 07:13:32;;;;;;;33.50;19.58;;;7.60;99.90;;;;;;5090345;28;20020;-49
2021/11/04 07:16:00;;;;;;;36.70;20.00;;;7.60;99.90;;;;;;5088825;28;20036;-48
2021/11/04 07:18:26;;;;;;;33.80;18.38;;;7.60;99.90;;;;;;5089682;28;20480;-48
2021/11/04 07:21:24;;;;;;;32.60;19.33;;;7.60;99.90;;;;;;5088821;28;20439;-47
2021/11/04 07:24:01;;;;;;;34.42;18.88;;;7.60;99.90;;;;;;5090085;28;20032;-47
2021/11/04 07:26:43;;;;;;;35.70;19.35;;;7.60;99.90;;;;;;5089993;28;20038;-48
2021/11/04 07:29:10;;;;;;;32.30;19.23;;;7.60;99.90;;;;;;5089557;28;20027;-50
2021/11/04 07:31:38;;;;;;;32.13;17.65;;;7.70;99.90;;;;;;5077512;28;20032;-48
2021/11/04 07:34:05;;;;;;;35.67;19.42;;;7.70;99.90;;;;;;5081623;28;20478;-50
2021/11/04 07:36:37;;;;;;;38.90;21.05;;;7.70;99.90;;;;;;5089948;28;20436;-50
2021/11/04 07:39:07;;;;;;;33.47;19.67;;;7.60;99.90;;;;;;5089474;28;20020;-48
2021/11/04 07:41:34;;;;;;;31.73;18.97;;;7.70;99.90;;;;;;5089819;28;20028;-47
2021/11/04 07:44:01;;;;;;;35.78;19.63;;;7.70;99.90;;;;;;5088622;28;20646;-48
2021/11/04 07:46:28;;;;;;;36.85;21.60;;;7.70;99.90;;;;;;5089370;28;20114;-50
2021/11/04 07:48:54;;;;;;;34.10;18.63;;;7.70;99.90;;;;;;5089569;28;20032;-47
2021/11/04 07:51:19;;;;;;;33.80;18.40;;;7.70;99.90;;;;;;5089822;28;20149;-48
2021/11/04 07:53:45;;;;;;;37.75;20.17;;;7.70;99.90;;;;;;5089698;28;20024;-50
2021/11/04 07:56:12;;;;;;;40.28;21.08;;;7.70;99.90;;;;;;5089417;28;20448;-48
2021/11/04 07:58:38;;;;;;;42.95;21.58;;;7.70;99.90;;;;;;5088712;28;20063;-48
2021/11/04 08:01:04;;;;;;;36.90;19.90;;;7.70;99.90;;;;;;5084466;28;20032;-47
2021/11/04 08:03:29;;;;;;;38.15;21.25;;;7.70;99.90;;;;;;5073145;28;20070;-47
2021/11/04 08:05:55;;;;;;;35.10;19.08;;;7.70;99.90;;;;;;5088950;28;20470;-48
2021/11/04 08:08:21;;;;;;;36.72;20.52;;;7.80;99.90;;;;;;5088715;28;20039;-48
2021/11/04 08:10:46;;;;;;;36.65;20.40;;;7.70;99.90;;;;;;5088847;28;20024;-48
2021/11/04 08:13:15;;;;;;;41.78;21.08;;;7.70;99.90;;;;;;5088419;28;20107;-48
2021/11/04 08:15:41;;;;;;;36.33;19.95;;;7.80;99.90;;;;;;5089222;28;20016;-49
2021/11/04 08:18:08;;;;;;;33.58;19.65;;;7.80;99.90;;;;;;5088462;28;20470;-47
2021/11/04 08:20:33;;;;;;;34.97;19.00;;;7.70;99.90;;;;;;5089206;28;20028;-49
2021/11/04 08:22:59;;;;;;;31.77;18.00;;;7.80;99.90;;;;;;5089234;28;20024;-49
2021/11/04 08:25:25;;;;;;;34.33;19.38;;;7.80;99.90;;;;;;5089052;28;20020;-46
2021/11/04 08:27:51;;;;;;;33.63;18.33;;;7.80;99.90;;;;;;5088513;28;20035;-50
2021/11/04 08:30:17;;;;;;;33.78;18.85;;;7.80;99.90;;;;;;5089267;28;20024;-46
2021/11/04 08:32:46;;;;;;;37.78;19.25;;;7.80;99.90;;;;;;5075742;28;20538;-47
2021/11/04 08:35:11;;;;;;;35.45;19.40;;;7.80;99.90;;;;;;5082667;28;20024;-47
2021/11/04 08:37:37;;;;;;;33.13;18.23;;;7.80;99.90;;;;;;5088596;28;20519;-46
2021/11/04 08:40:05;;;;;;;33.78;17.60;;;7.80;99.90;;;;;;5088698;28;20051;-50
2021/11/04 08:42:31;;;;;;;33.92;18.33;;;7.70;99.90;;;;;;5088784;28;20078;-50
2021/11/04 08:44:59;;;;;;;36.22;19.45;;;7.80;99.90;;;;;;5088933;28;20049;-49
2021/11/04 08:47:24;;;;;;;35.42;18.15;;;7.80;99.90;;;;;;5087969;28;20016;-50
2021/11/04 08:49:50;;;;;;;32.80;17.67;;;7.70;99.90;;;;;;5088694;28;20020;-46
2021/11/04 08:52:15;;;;;;;34.85;19.33;;;7.70;99.90;;;;;;5076890;28;20028;-47
2021/11/04 08:54:41;;;;;;;33.20;18.77;;;7.70;99.90;;;;;;5079896;28;20063;-47
2021/11/04 08:57:08;;;;;;;36.28;19.98;;;7.70;99.90;;;;;;5086464;28;20667;-47
2021/11/04 08:59:34;;;;;;;35.85;20.23;;;7.70;99.90;;;;;;5088802;28;20101;-50
2021/11/04 09:02:00;;;;;;;107.82;31.70;;;7.70;99.90;;;;;;5082633;28;20042;-50
2021/11/04 09:04:29;;;;;;;141.30;41.28;;;7.80;99.90;;;;;;5078371;28;20477;-49
2021/11/04 09:06:55;;;;;;;58.80;23.13;;;7.80;99.90;;;;;;5088047;28;20028;-49
2021/11/04 09:09:21;;;;;;;33.85;18.85;;;7.80;99.90;;;;;;5073598;28;20051;-47
2021/11/04 09:11:46;;;;;;;34.88;18.67;;;7.80;99.90;;;;;;5079795;28;20024;-49
2021/11/04 09:14:13;;;;;;;31.95;17.48;;;7.80;99.90;;;;;;5088586;28;20031;-48
2021/11/04 09:16:39;;;;;;;32.75;17.88;;;7.80;99.90;;;;;;5088346;28;20274;-49
2021/11/04 09:19:05;;;;;;;29.27;15.85;;;7.80;99.90;;;;;;5087742;28;20051;-47
2021/11/04 09:21:31;;;;;;;28.77;16.23;;;7.80;99.90;;;;;;5086748;28;20024;-47
2021/11/04 09:23:57;;;;;;;29.45;16.23;;;7.80;99.90;;;;;;5090427;28;20031;-49
2021/11/04 09:26:22;;;;;;;32.80;16.88;;;7.80;99.90;;;;;;5092202;28;20085;-47
2021/11/04 09:28:48;;;;;;;30.80;16.08;;;7.80;99.90;;;;;;5091603;28;20039;-49
2021/11/04 09:31:13;;;;;;;30.50;17.17;;;7.80;99.90;;;;;;5092145;28;20170;-46
2021/11/04 09:33:41;;;;;;;30.98;15.07;;;7.80;99.90;;;;;;5092184;28;20043;-47
2021/11/04 09:36:07;;;;;;;26.90;15.27;;;7.80;99.90;;;;;;5091921;28;20106;-48
2021/11/04 09:38:32;;;;;;;24.85;15.00;;;7.80;99.90;;;;;;5079723;28;20151;-49
2021/11/04 09:40:58;;;;;;;31.55;15.82;;;7.80;99.90;;;;;;5065357;28;20035;-46
2021/11/04 09:43:23;;;;;;;25.75;15.63;;;7.80;99.90;;;;;;5091960;28;20026;-48
2021/11/04 09:45:49;;;;;;;29.73;16.17;;;7.80;99.90;;;;;;5091945;28;20060;-48
2021/11/04 09:48:15;;;;;;;32.92;16.98;;;7.80;99.90;;;;;;5091218;28;20235;-50
2021/11/04 09:50:41;;;;;;;30.02;16.02;;;7.80;99.90;;;;;;5089540;28;20036;-48
2021/11/04 09:53:06;;;;;;;27.60;15.73;;;7.80;99.90;;;;;;5090201;28;20089;-48
2021/11/04 09:55:32;;;;;;;30.92;16.25;;;7.80;99.90;;;;;;5085011;28;20043;-47
2021/11/04 09:58:00;;;;;;;27.33;15.07;;;7.80;99.90;;;;;;5091249;28;20027;-48
2021/11/04 10:00:41;;;;;;;24.33;14.77;;;7.90;99.90;;;;;;5092042;28;20024;-48
2021/11/04 10:03:09;;;;;;;29.10;16.17;;;7.90;99.90;;;;;;5076982;28;20496;-48
2021/11/04 10:05:43;;;;;;;29.30;16.83;;;7.90;99.90;;;;;;5088473;28;20032;-49
2021/11/04 10:08:12;;;;;;;28.00;16.25;;;7.90;99.90;;;;;;5090829;28;20024;-48
2021/11/04 10:10:38;;;;;;;32.92;16.83;;;7.90;99.90;;;;;;5091511;28;20024;-48
2021/11/04 10:13:08;;;;;;;37.40;18.27;;;7.90;99.90;;;;;;5091555;28;20036;-47
2021/11/04 10:15:35;;;;;;;;;;;7.90;99.90;;;;;;5091590;28;20212;-47
2021/11/04 10:18:19;;;;;;;30.92;16.92;;;7.90;99.90;;;;;;5085813;28;20138;-48
2021/11/04 10:20:54;;;;;;;34.15;18.60;;;7.90;99.90;;;;;;5049374;28;20309;-47
2021/11/04 10:23:20;;;;;;;31.13;17.48;;;7.90;99.90;;;;;;5049003;28;20021;-47
2021/11/04 10:25:47;;;;;;;29.88;18.15;;;7.90;99.90;;;;;;5049404;28;20029;-49
2021/11/04 10:28:21;;;;;;;31.50;17.95;;;7.90;99.90;;;;;;5050148;28;20409;-47
2021/11/04 10:30:47;;;;;;;31.15;18.88;;;7.90;99.90;;;;;;5050282;28;20025;-46
2021/11/04 10:33:17;;;;;;;31.55;18.65;;;7.80;99.90;;;;;;5072153;28;20547;-47
2021/11/04 10:35:48;;;;;;;34.22;19.67;;;7.80;99.90;;;;;;5087732;28;20063;-48
2021/11/04 10:38:13;;;;;;;40.25;19.90;;;7.80;99.90;;;;;;5089885;28;20089;-47
2021/11/04 10:40:41;;;;;;;37.10;19.65;;;7.80;99.90;;;;;;5090751;28;20048;-49
2021/11/04 10:43:06;;;;;;;31.88;18.08;;;7.90;99.90;;;;;;5090844;28;20035;-49
2021/11/04 10:45:32;;;;;;;38.13;20.13;;;7.90;99.90;;;;;;5090645;28;20186;-48
2021/11/04 10:48:23;;;;;;;39.83;21.63;;;7.90;99.90;;;;;;5089594;28;20126;-47
2021/11/04 10:50:49;;;;;;;;;;;7.90;99.90;;;;;;5090835;28;20517;-48
2021/11/04 10:53:20;;;;;;;36.58;19.92;;;7.90;99.90;;;;;;5088858;28;19958;-47
2021/11/04 10:55:47;;;;;;;38.47;21.83;;;7.90;99.90;;;;;;5089001;28;20385;-50
2021/11/04 10:58:30;;;;;;;40.28;22.38;;;7.90;99.90;;;;;;5089745;28;20097;-47
2021/11/04 11:00:57;;;;;;;38.55;20.63;;;7.90;99.90;;;;;;5089987;28;20369;-48
2021/11/04 11:03:23;;;;;;;41.28;21.95;;;7.90;99.90;;;;;;5075355;28;20048;-50
2021/11/04 11:05:50;;;;;;;40.38;21.75;;;7.90;99.90;;;;;;5089083;28;20107;-47
2021/11/04 11:08:16;;;;;;;42.33;22.65;;;7.90;99.90;;;;;;5089410;28;20473;-49
2021/11/04 11:10:44;;;;;;;42.17;23.50;;;7.90;99.90;;;;;;5088937;28;20077;-50
2021/11/04 11:13:10;;;;;;;43.60;23.02;;;7.90;99.90;;;;;;5074119;28;20066;-48
2021/11/04 11:15:41;;;;;;;46.20;24.60;;;7.90;99.90;;;;;;5085042;28;20036;-47
2021/11/04 11:18:09;;;;;;;41.45;22.30;;;7.90;99.90;;;;;;5088093;28;20106;-47
2021/11/04 11:20:46;;;;;;;47.00;24.42;;;7.90;99.90;;;;;;5089808;28;20111;-47
2021/11/04 11:23:16;;;;;;;44.30;24.88;;;7.90;99.90;;;;;;5089673;28;20027;-48
2021/11/04 11:25:44;;;;;;;45.85;23.80;;;7.90;99.90;;;;;;5089835;28;20066;-47
2021/11/04 11:28:09;;;;;;;46.40;24.95;;;7.90;99.90;;;;;;5089305;28;20032;-48
2021/11/04 11:30:35;;;;;;;48.83;26.02;;;7.90;99.90;;;;;;5089420;28;20077;-51
2021/11/04 11:33:17;;;;;;;48.03;25.52;;;7.90;99.90;;;;;;5089533;28;20032;-50
2021/11/04 11:36:08;;;;;;;49.75;25.70;;;7.90;99.90;;;;;;5089553;28;20028;-49
2021/11/04 11:38:57;;;;;;;43.03;24.92;;;7.90;99.90;;;;;;5088182;28;20024;-47
2021/11/04 11:41:30;;;;;;;48.25;24.48;;;7.90;99.90;;;;;;5085353;28;20055;-47
2021/11/04 11:44:06;;;;;;;49.65;26.15;;;7.90;99.90;;;;;;5079074;28;20559;-46
2021/11/04 11:46:49;;;;;;;44.63;25.08;;;7.90;99.90;;;;;;5088691;28;20031;-50
2021/11/04 11:49:18;;;;;;;46.53;25.85;;;7.90;99.90;;;;;;5089124;28;20039;-47
2021/11/04 11:51:54;;;;;;;49.83;25.98;;;7.80;99.90;;;;;;5088982;28;20028;-47
2021/11/04 11:54:20;;;;;;;50.78;25.83;;;7.90;99.90;;;;;;5089703;28;20198;-47
2021/11/04 11:57:09;;;;;;;48.40;25.70;;;7.90;99.90;;;;;;5089485;28;20024;-47
2021/11/04 11:59:51;;;;;;;55.35;27.27;;;7.90;99.90;;;;;;5088842;28;20023;-47
2021/11/04 12:02:40;;;;;;;52.05;26.10;;;7.90;99.90;;;;;;5083388;28;20417;-48
2021/11/04 12:05:27;;;;;;;58.08;27.25;;;7.90;99.90;;;;;;5074848;28;20020;-48
2021/11/04 12:08:21;;;;;;;49.30;27.67;;;7.90;99.90;;;;;;5088030;28;20486;-49
2021/11/04 12:10:47;;;;;;;57.15;26.13;;;7.90;99.90;;;;;;5073095;28;20028;-47
2021/11/04 12:13:36;;;;;;;57.28;27.80;;;7.90;99.90;;;;;;5068718;28;20100;-48
2021/11/04 12:16:23;;;;;;;54.17;26.55;;;7.90;99.90;;;;;;5067922;28;20436;-48
2021/11/04 12:18:58;;;;;;;55.90;26.17;;;7.90;99.90;;;;;;5066897;28;20107;-49
2021/11/04 12:21:28;;;;;;;56.78;25.80;;;7.90;99.90;;;;;;5067812;28;20017;-47
2021/11/04 12:23:57;;;;;;;56.35;27.77;;;7.90;99.90;;;;;;5068279;28;20197;-47
2021/11/04 12:26:31;;;;;;;48.33;23.45;;;7.90;99.90;;;;;;5068454;28;20394;-47
2021/11/04 12:28:57;;;;;;;52.53;25.17;;;7.90;99.90;;;;;;5066847;28;20078;-47
2021/11/04 12:31:25;;;;;;;56.75;27.55;;;7.90;99.90;;;;;;5067073;28;20032;-49
2021/11/04 12:33:53;;;;;;;52.22;25.42;;;7.90;99.90;;;;;;5078155;28;20067;-47
2021/11/04 12:36:45;;;;;;;49.00;25.58;;;7.90;99.90;;;;;;5088213;28;20055;-47
2021/11/04 12:39:25;;;;;;;52.72;25.73;;;7.90;99.90;;;;;;5085733;28;20283;-47
2021/11/04 12:41:53;;;;;;;57.00;26.88;;;7.80;99.90;;;;;;5088268;28;20027;-47